createdAt,value
2023-08-02T00:04:11.320Z,100.00
2023-08-02T00:09:14.957Z,100.00
2023-08-02T00:14:17.998Z,100.00
2023-08-02T00:19:20.901Z,100.00
2023-08-02T00:24:23.749Z,100.00
2023-08-02T00:29:26.820Z,100.00
2023-08-02T00:34:29.683Z,100.00
2023-08-02T00:39:32.535Z,100.00
2023-08-02T00:44:35.409Z,100.00
2023-08-02T00:49:38.410Z,100.00
2023-08-02T00:54:43.196Z,100.00
2023-08-02T00:59:46.140Z,100.00
2023-08-02T01:04:49.511Z,100.00
2023-08-02T01:10:13.935Z,100.00
2023-08-02T01:15:18.126Z,100.00
2023-08-02T01:20:20.985Z,100.00
2023-08-02T01:25:26.632Z,100.00
2023-08-02T01:30:34.952Z,100.00
2023-08-02T01:35:38.559Z,100.00
2023-08-02T01:40:41.512Z,100.00
2023-08-02T01:45:44.433Z,100.00
2023-08-02T01:50:47.713Z,100.00
2023-08-02T01:55:50.596Z,100.00
2023-08-02T02:00:53.543Z,100.00
2023-08-02T02:05:56.544Z,100.00
2023-08-02T02:10:59.791Z,100.00
2023-08-02T02:16:02.775Z,100.00
2023-08-02T02:21:06.044Z,100.00
2023-08-02T02:26:09.672Z,100.00
2023-08-02T02:31:12.507Z,100.00
2023-08-02T02:36:15.428Z,100.00
2023-08-02T02:41:18.285Z,100.00
2023-08-02T02:46:21.101Z,100.00
2023-08-02T02:51:24.006Z,100.00
2023-08-02T02:56:26.975Z,100.00
2023-08-02T03:01:29.921Z,100.00
2023-08-02T03:06:32.798Z,100.00
2023-08-02T03:12:12.109Z,100.00
2023-08-02T03:17:24.080Z,100.00
2023-08-02T03:22:26.858Z,100.00
2023-08-02T03:27:30.114Z,100.00
2023-08-02T03:32:32.907Z,100.00
2023-08-02T03:37:35.768Z,100.00
2023-08-02T03:42:38.491Z,100.00
2023-08-02T03:47:41.744Z,100.00
2023-08-02T03:52:44.646Z,100.00
2023-08-02T03:57:47.391Z,100.00
2023-08-02T04:02:50.308Z,100.00
2023-08-02T04:07:53.669Z,100.00
2023-08-02T04:12:56.460Z,100.00
2023-08-02T04:17:59.376Z,100.00
2023-08-02T04:23:04.601Z,100.00
2023-08-02T04:28:08.090Z,100.00
2023-08-02T04:33:10.963Z,100.00
2023-08-02T04:38:13.989Z,100.00
2023-08-02T04:43:16.740Z,100.00
2023-08-02T04:48:19.619Z,100.00
2023-08-02T04:53:22.536Z,100.00
2023-08-02T04:58:25.375Z,100.00
2023-08-02T05:03:28.224Z,100.00
2023-08-02T05:08:33.448Z,100.00
2023-08-02T05:13:36.456Z,100.00
2023-08-02T05:18:39.410Z,100.00
2023-08-02T05:23:43.384Z,100.00
2023-08-02T05:28:46.245Z,100.00
2023-08-02T05:33:49.566Z,100.00
2023-08-02T05:38:52.697Z,100.00
2023-08-02T05:43:55.503Z,100.00
2023-08-02T05:48:58.446Z,100.00
2023-08-02T05:54:01.351Z,100.00
2023-08-02T05:59:04.288Z,100.00
2023-08-02T06:04:07.378Z,100.00
2023-08-02T06:09:10.711Z,100.00
2023-08-02T06:14:14.750Z,100.00
2023-08-02T06:19:17.726Z,100.00
2023-08-02T06:24:22.873Z,100.00
2023-08-02T06:29:25.873Z,100.00
2023-08-02T06:34:29.057Z,100.00
2023-08-02T06:39:33.705Z,100.00
2023-08-02T06:44:36.943Z,100.00
2023-08-02T06:49:41.200Z,100.00
2023-08-02T06:54:44.352Z,100.00
2023-08-02T06:59:47.490Z,100.00
2023-08-02T07:04:50.536Z,100.00
2023-08-02T07:09:56.512Z,100.00
2023-08-02T07:14:59.392Z,100.00
2023-08-02T07:20:03.071Z,100.00
2023-08-02T07:25:06.889Z,100.00
2023-08-02T07:30:10.297Z,100.00
2023-08-02T07:35:13.311Z,99.85
2023-08-02T07:40:16.224Z,99.39
2023-08-02T07:45:19.351Z,97.39
2023-08-02T07:50:22.565Z,93.30
2023-08-02T07:55:25.578Z,94.31
2023-08-02T08:00:56.710Z,92.84
2023-08-02T08:06:16.783Z,92.35
2023-08-02T08:11:21.690Z,88.47
2023-08-02T08:16:26.242Z,88.13
2023-08-02T08:21:29.152Z,90.12
2023-08-02T08:26:32.045Z,88.53
2023-08-02T08:31:35.138Z,84.96
2023-08-02T08:36:38.188Z,83.54
2023-08-02T08:41:41.373Z,81.79
2023-08-02T08:46:45.996Z,83.11
2023-08-02T08:51:53.889Z,83.25
2023-08-02T08:56:57.961Z,81.85
2023-08-02T09:02:01.197Z,80.08
2023-08-02T09:07:04.447Z,80.12
2023-08-02T09:12:10.287Z,81.22
2023-08-02T09:17:16.506Z,81.71
2023-08-02T09:22:19.743Z,82.66
2023-08-02T09:27:22.630Z,81.36
2023-08-02T09:32:27.177Z,78.70
2023-08-02T09:37:37.135Z,78.12
2023-08-02T09:42:40.169Z,73.95
2023-08-02T09:47:52.816Z,71.40
2023-08-02T09:52:56.646Z,71.17
2023-08-02T09:58:01.365Z,70.08
2023-08-02T10:03:15.637Z,70.13
2023-08-02T10:08:23.928Z,67.93
2023-08-02T10:13:31.522Z,67.34
2023-08-02T10:18:35.653Z,67.98
2023-08-02T10:23:39.320Z,68.28
2023-08-02T10:28:42.731Z,67.00
2023-08-02T10:33:45.738Z,66.84
2023-08-02T10:38:50.591Z,67.76
2023-08-02T10:43:55.150Z,68.07
2023-08-02T10:49:18.835Z,66.16
2023-08-02T10:54:24.381Z,66.01
2023-08-02T10:59:30.465Z,66.52
2023-08-02T11:04:37.519Z,67.01
2023-08-02T11:09:42.464Z,67.81
2023-08-02T11:14:51.395Z,67.84
2023-08-02T11:25:01.484Z,67.93
2023-08-02T11:30:08.636Z,67.72
2023-08-02T11:35:19.430Z,66.01
2023-08-02T11:40:26.656Z,64.02
2023-08-02T11:45:31.581Z,62.27
2023-08-02T11:50:36.402Z,61.14
2023-08-02T11:55:41.134Z,59.20
2023-08-02T12:00:45.466Z,58.40
2023-08-02T12:05:48.473Z,57.63
2023-08-02T12:10:52.529Z,56.91
2023-08-02T12:16:07.477Z,54.30
2023-08-02T12:21:16.844Z,54.59
2023-08-02T12:26:34.477Z,53.98
2023-08-02T12:31:43.310Z,55.92
2023-08-02T12:36:49.129Z,55.66
2023-08-02T12:41:52.249Z,54.89
2023-08-02T12:46:55.170Z,53.84
2023-08-02T12:51:58.059Z,54.94
2023-08-02T12:57:00.992Z,53.84
2023-08-02T13:02:04.313Z,53.22
2023-08-02T13:07:07.524Z,53.74
2023-08-02T13:12:13.992Z,52.27
2023-08-02T13:17:21.056Z,53.43
2023-08-02T13:22:25.301Z,52.48
2023-08-02T13:27:34.284Z,52.49
2023-08-02T13:32:39.574Z,52.01
2023-08-02T13:37:43.234Z,51.09
2023-08-02T13:42:46.655Z,49.82
2023-08-02T13:47:49.738Z,47.94
2023-08-02T13:52:52.773Z,47.31
2023-08-02T13:57:55.912Z,47.89
2023-08-02T14:02:59.025Z,48.06
2023-08-02T14:08:02.045Z,48.86
2023-08-02T14:13:04.897Z,49.65
2023-08-02T14:18:07.883Z,51.17
2023-08-02T14:23:11.182Z,51.07
2023-08-02T14:28:14.147Z,50.84
2023-08-02T14:33:18.013Z,51.45
2023-08-02T14:38:21.078Z,51.82
2023-08-02T14:43:24.017Z,51.61
2023-08-02T14:48:28.155Z,50.60
2023-08-02T14:53:31.151Z,49.08
2023-08-02T14:58:34.215Z,48.49
2023-08-02T15:03:37.105Z,47.31
2023-08-02T15:08:40.060Z,48.49
2023-08-02T15:13:43.204Z,50.02
2023-08-02T15:18:46.890Z,51.16
2023-08-02T15:23:51.382Z,52.00
2023-08-02T15:28:54.959Z,51.95
2023-08-02T15:33:57.953Z,51.13
2023-08-02T15:39:01.138Z,50.15
2023-08-02T15:44:04.708Z,48.42
2023-08-02T15:49:07.749Z,46.02
2023-08-02T15:54:10.806Z,43.11
2023-08-02T15:59:16.635Z,42.45
2023-08-02T16:04:19.747Z,42.49
2023-08-02T16:09:22.869Z,41.79
2023-08-02T16:14:26.740Z,41.59
2023-08-02T16:19:32.764Z,41.40
2023-08-02T16:24:37.212Z,41.11
2023-08-02T16:29:40.057Z,42.63
2023-08-02T16:34:43.389Z,43.79
2023-08-02T16:39:46.295Z,41.71
2023-08-02T16:44:49.193Z,38.35
2023-08-02T16:49:52.091Z,36.41
2023-08-02T16:54:55.062Z,36.04
2023-08-02T16:59:58.008Z,35.17
2023-08-02T17:05:00.841Z,34.24
2023-08-02T17:10:04.649Z,32.83
2023-08-02T17:15:07.983Z,30.32
2023-08-02T17:20:12.082Z,29.78
2023-08-02T17:25:15.731Z,31.80
2023-08-02T17:30:18.950Z,32.59
2023-08-02T17:35:21.854Z,32.32
2023-08-02T17:40:24.920Z,33.58
2023-08-02T17:45:28.069Z,34.88
2023-08-02T17:50:31.126Z,36.42
2023-08-02T17:55:34.213Z,37.94
2023-08-02T18:00:40.004Z,39.83
2023-08-02T18:05:42.888Z,41.59
2023-08-02T18:10:45.854Z,43.67
2023-08-02T18:15:48.790Z,45.63
2023-08-02T18:20:51.655Z,47.78
2023-08-02T18:25:55.026Z,49.46
2023-08-02T18:31:05.762Z,50.62
2023-08-02T18:36:14.602Z,52.22
2023-08-02T18:41:20.084Z,53.41
2023-08-02T18:46:23.001Z,54.90
2023-08-02T18:51:25.936Z,56.37
2023-08-02T18:56:28.798Z,58.11
2023-08-02T19:01:31.794Z,59.62
2023-08-02T19:06:35.025Z,60.90
2023-08-02T19:11:37.986Z,62.08
2023-08-02T19:16:41.341Z,62.97
2023-08-02T19:21:50.849Z,64.49
2023-08-02T19:26:53.981Z,65.83
2023-08-02T19:32:00.345Z,67.11
2023-08-02T19:37:06.506Z,68.62
2023-08-02T19:42:15.154Z,69.47
2023-08-02T19:47:25.020Z,70.38
2023-08-02T19:52:32.165Z,71.02
2023-08-02T19:57:44.876Z,71.51
2023-08-02T20:02:48.495Z,72.30
2023-08-02T20:07:51.668Z,73.26
2023-08-02T20:12:57.138Z,74.13
2023-08-02T20:18:00.713Z,75.11
2023-08-02T20:23:06.934Z,76.13
2023-08-02T20:28:13.286Z,76.73
2023-08-02T20:33:16.128Z,77.38
2023-08-02T20:38:19.145Z,78.09
2023-08-02T20:43:22.017Z,78.83
2023-08-02T20:48:24.924Z,79.41
2023-08-02T20:53:27.857Z,79.90
2023-08-02T20:58:31.274Z,80.47
2023-08-02T21:03:37.858Z,81.46
2023-08-02T21:08:43.739Z,82.05
2023-08-02T21:13:46.697Z,82.37
2023-08-02T21:18:55.406Z,82.58
2023-08-02T21:23:59.526Z,82.77
2023-08-02T21:29:04.867Z,83.32
2023-08-02T21:34:17.121Z,83.70
2023-08-02T21:39:20.928Z,83.68
2023-08-02T21:44:30.405Z,83.74
2023-08-02T21:49:33.687Z,83.61
2023-08-02T21:54:36.932Z,83.77
2023-08-02T21:59:39.845Z,83.82
2023-08-02T22:04:45.245Z,83.94
2023-08-02T22:09:54.846Z,84.19
2023-08-02T22:15:03.514Z,84.63
2023-08-02T22:20:07.566Z,84.74
2023-08-02T22:25:10.420Z,84.91
2023-08-02T22:30:13.777Z,85.04
2023-08-02T22:35:16.640Z,84.94
2023-08-02T22:40:19.629Z,84.95
2023-08-02T22:45:23.683Z,84.79
2023-08-02T22:55:32.764Z,84.46
2023-08-02T23:00:36.345Z,84.18
2023-08-02T23:05:44.487Z,84.23
2023-08-02T23:10:47.524Z,84.11
2023-08-02T23:15:50.408Z,83.85
2023-08-02T23:20:54.231Z,83.48
2023-08-02T23:26:01.748Z,83.21
2023-08-02T23:31:07.489Z,82.64
2023-08-02T23:36:10.327Z,82.16
2023-08-02T23:41:13.297Z,81.60
2023-08-02T23:46:18.369Z,81.09
2023-08-02T23:51:21.735Z,80.63
2023-08-02T23:56:24.602Z,80.42
